Impacts METAR Board
IDs:

KBWI - Baltimore-Washington, MD, US

Updated at: 0300 UTC 16 Aug 2018
Potential Impact None Slight Moderate High
Time 15/15Z 15/16Z 15/17Z 15/18Z 15/19Z 15/20Z 15/21Z 15/22Z 15/23Z 16/00Z 16/01Z 16/02Z 16/03Z
Temp83 85 86 87 89 88 88 86 84 79 77 76 75
Dewpt67 68 69 67 66 67 66 65 66 67 68 69 69
Altim30.01 30.01 30.01 30.00 29.99 29.99 29.99 29.99 29.99 30.00 30.02 30.03 30.04
VIS10 10 10 10 10 10 10 10 10 10 10 10 10
CIG250 250 -- -- 250 250 250 250 250 250 250 180 250
CoverBKNBKNSCTSCTBKNBKNBKNBKNBKNBKNBKNOVCBKN
FltCatVFRVFRVFRVFRVFRVFRVFRVFRVFRVFRVFRVFRVFR
WX--------------------------
WDir30030026028030029029028027026024000
WSpd6 9 7 9 8 8 9 12 6 5 4 0 0
WGst16 -- -- -- -- -- -- 17 -- -- -- -- --
Raw hourly METARs
KBWI 151454Z COR 30006G16KT 10SM FEW110 FEW150 BKN250 28/19 A3001 RMK AO2 SLP162 T02830194 51013
KBWI 151554Z 30009KT 10SM FEW039 FEW110 SCT150 BKN250 29/20 A3001 RMK AO2 SLP162 T02940200
KBWI 151654Z 26007KT 10SM FEW044 FEW110 FEW150 SCT250 30/21 A3001 RMK AO2 SLP160 T03000206
KBWI 151754Z 28009KT 10SM FEW048 FEW150 SCT250 31/19 A3000 RMK AO2 SLP156 T03060194 10311 20222 58006
KBWI 151854Z 30008KT 10SM FEW055 FEW150 BKN250 32/19 A2999 RMK AO2 SLP155 T03170189
KBWI 151954Z 29008KT 10SM SCT055 BKN250 31/19 A2999 RMK AO2 SLP154 T03110194
KBWI 152054Z 29009KT 10SM FEW055 BKN250 31/19 A2999 RMK AO2 SLP155 T03110189 55001
KBWI 152154Z 28012G17KT 10SM FEW055 BKN250 30/18 A2999 RMK AO2 SLP155 T03000183
KBWI 152254Z 27006KT 10SM BKN250 29/19 A2999 RMK AO2 SLP153 T02890189
KBWI 152354Z 26005KT 10SM FEW180 BKN250 26/19 A3000 RMK AO2 SLP157 T02610194 10317 20261 53002
KBWI 160054Z 24004KT 10SM FEW180 BKN250 25/20 A3002 RMK AO2 SLP163 T02500200
KBWI 160154Z 00000KT 10SM BKN180 OVC250 24/21 A3003 RMK AO2 SLP168 T02440206
KBWI 160254Z 00000KT 10SM SCT180 BKN250 24/21 A3004 RMK AO2 SLP170 T02390206 51013



Page loaded:  03:07 UTC  |   08:07 PM Pacific  |   09:07 PM Mountain  |   10:07 PM Central  |   11:07 PM Eastern

 

ADVISORIES

FORECASTS

FORECASTS

OBSERVATIONS

USER TOOLS

ABOUT US